Time;durP1;ratioP1;P1;durP2;ratioP2;P2;SDS_P1;SDS_P2;PMS_P1;PMS_P2;Temp;Humidity;BMP_temperature;BMP_pressure;BME280_temperature;BME280_humidity;BME280_pressure;Samples;Min_cycle;Max_cycle;Signal;HPM_P1;HPM_P2
2022/06/17 00:01:26;;;;;;;1999.90;999.90;;;;;;;19.48;100.00;95781.97;5097925;28;20187;-59
2022/06/17 00:03:52;;;;;;;1999.90;999.90;;;;;;;19.46;100.00;95784.44;5098057;28;20207;-59
2022/06/17 00:06:23;;;;;;;1999.90;999.90;;;;;;;19.44;100.00;95792.41;5114860;28;20277;-59
2022/06/17 00:08:52;;;;;;;1999.90;999.90;;;;;;;19.41;100.00;95776.69;5097923;28;20192;-59
2022/06/17 00:11:27;;;;;;;1999.90;999.90;;;;;;;19.32;100.00;95773.88;5097548;28;20187;-67
2022/06/17 00:13:52;;;;;;;1999.90;999.90;;;;;;;19.29;100.00;95769.22;5114775;28;20301;-67
2022/06/17 00:16:20;;;;;;;1999.90;999.90;;;;;;;19.29;100.00;95766.47;5114512;28;20187;-69
2022/06/17 00:18:46;;;;;;;1999.90;999.90;;;;;;;19.22;100.00;95763.91;5097575;28;20184;-68
2022/06/17 00:21:26;;;;;;;1999.90;999.90;;;;;;;19.20;100.00;95761.59;5097677;28;20180;-70
2022/06/17 00:23:52;;;;;;;1999.90;999.90;;;;;;;19.15;100.00;95747.53;5098189;28;20179;-69
2022/06/17 00:26:18;;;;;;;1999.90;999.90;;;;;;;19.08;100.00;95731.97;5097480;28;20210;-69
2022/06/17 00:28:43;;;;;;;1999.90;999.90;;;;;;;19.01;100.00;95736.97;5097289;28;20179;-75
2022/06/17 00:31:09;;;;;;;1999.90;999.90;;;;;;;18.95;100.00;95738.78;5114631;28;20191;-57
2022/06/17 00:33:34;;;;;;;1999.90;999.90;;;;;;;18.96;100.00;95740.31;5097445;28;20195;-58
2022/06/17 00:36:00;;;;;;;1999.90;999.90;;;;;;;18.95;100.00;95749.84;5114580;28;20194;-57
2022/06/17 00:38:29;;;;;;;1999.90;999.90;;;;;;;18.87;100.00;95734.72;5113968;28;20211;-57
2022/06/17 00:40:58;;;;;;;1999.90;999.90;;;;;;;18.85;100.00;95739.91;5097980;28;20195;-57
2022/06/17 00:43:34;;;;;;;1999.90;999.90;;;;;;;18.80;100.00;95737.72;5114044;28;20270;-57
2022/06/17 00:46:19;;;;;;;1999.90;999.90;;;;;;;18.73;100.00;95744.25;5097659;28;20215;-68
2022/06/17 00:49:26;;;;;;;1999.90;999.90;;;;;;;18.72;100.00;95730.88;5114564;28;20188;-54
2022/06/17 00:52:33;;;;;;;1999.90;999.90;;;;;;;18.62;100.00;95726.47;5097272;28;20191;-53
2022/06/17 00:55:17;;;;;;;1999.90;999.90;;;;;;;18.60;100.00;95720.59;5114037;28;20287;-52
2022/06/17 00:57:43;;;;;;;1999.90;999.90;;;;;;;18.52;100.00;95717.31;5114216;28;20222;-53
2022/06/17 01:00:23;;;;;;;1999.90;999.90;;;;;;;18.50;100.00;95721.75;5113857;28;20216;-52
2022/06/17 01:02:54;;;;;;;1999.90;999.90;;;;;;;18.44;100.00;95715.25;5095676;28;20233;-59
2022/06/17 01:05:25;;;;;;;1999.90;999.90;;;;;;;18.41;100.00;95716.13;5097308;28;20204;-60
2022/06/17 01:08:01;;;;;;;1999.90;999.90;;;;;;;18.39;100.00;95707.50;5097685;28;20183;-74
2022/06/17 01:10:28;;;;;;;1999.90;999.90;;;;;;;18.37;100.00;95709.94;5114396;28;20188;-74
2022/06/17 01:13:04;;;;;;;1999.90;999.90;;;;;;;18.33;100.00;95703.72;5113830;28;20187;-73
2022/06/17 01:15:33;;;;;;;1999.90;999.90;;;;;;;18.32;100.00;95714.00;5096948;28;20191;-74
2022/06/17 01:18:00;;;;;;;1999.90;999.90;;;;;;;18.30;100.00;95710.16;5096784;28;20240;-73
2022/06/17 01:20:29;;;;;;;1999.90;999.90;;;;;;;18.24;100.00;95715.47;5113976;28;20203;-74
2022/06/17 01:23:03;;;;;;;1999.90;999.90;;;;;;;18.23;100.00;95710.38;5096798;28;20251;-58
2022/06/17 01:25:36;;;;;;;1999.90;999.90;;;;;;;18.18;100.00;95724.75;5113982;28;20199;-57
2022/06/17 01:28:04;;;;;;;1999.90;999.90;;;;;;;18.13;100.00;95736.38;5096396;28;20179;-58
2022/06/17 01:30:37;;;;;;;1999.90;999.90;;;;;;;18.12;100.00;95738.38;5113699;28;20235;-58
2022/06/17 01:33:07;;;;;;;1999.90;999.90;;;;;;;18.09;100.00;95741.22;5096602;28;20191;-58
2022/06/17 01:35:57;;;;;;;1999.90;999.90;;;;;;;18.09;100.00;95755.06;5113876;28;20202;-57
2022/06/17 01:38:24;;;;;;;1999.90;999.90;;;;;;;18.08;100.00;95742.47;5096542;28;20218;-57
2022/06/17 01:40:52;;;;;;;1999.90;999.90;;;;;;;18.07;100.00;95729.88;5113273;28;20354;-57
2022/06/17 01:43:21;;;;;;;1999.90;999.90;;;;;;;18.06;100.00;95725.56;5113511;28;20188;-59
2022/06/17 01:45:54;;;;;;;1999.90;999.90;;;;;;;18.03;100.00;95720.91;5096338;28;20214;-60
2022/06/17 01:48:23;;;;;;;1999.90;999.90;;;;;;;18.02;100.00;95727.63;5096379;28;20184;-60
2022/06/17 01:50:51;;;;;;;1999.90;999.90;;;;;;;18.01;100.00;95732.41;5113174;28;20192;-58
2022/06/17 01:53:22;;;;;;;1999.90;999.90;;;;;;;17.99;100.00;95725.78;5096424;28;20188;-59
2022/06/17 01:55:57;;;;;;;1999.90;999.90;;;;;;;17.93;100.00;95735.84;5096216;28;20191;-59
2022/06/17 01:58:35;;;;;;;1999.90;999.90;;;;;;;17.94;100.00;95731.84;5113586;28;20194;-58
2022/06/17 02:01:02;;;;;;;1999.90;999.90;;;;;;;17.90;100.00;95723.69;5114006;28;20168;-62
2022/06/17 02:03:48;;;;;;;1999.90;999.90;;;;;;;17.89;100.00;95732.41;5113341;28;20253;-57
2022/06/17 02:06:43;;;;;;;1999.90;999.90;;;;;;;17.88;100.00;95723.31;5113684;28;20207;-57
2022/06/17 02:09:09;;;;;;;1999.90;999.90;;;;;;;17.85;100.00;95732.50;5104359;28;20195;-57
2022/06/17 02:11:34;;;;;;;1999.90;999.90;;;;;;;17.87;100.00;95737.59;5113608;28;20194;-58
2022/06/17 02:14:06;;;;;;;1999.90;999.90;;;;;;;17.85;100.00;95729.72;5115450;28;20187;-58
2022/06/17 02:16:40;;;;;;;1999.90;999.90;;;;;;;17.83;100.00;95715.59;5117227;28;20187;-66
2022/06/17 02:19:05;;;;;;;1999.90;999.90;;;;;;;17.81;100.00;95723.53;5100406;28;20176;-54
2022/06/17 02:21:40;;;;;;;1999.90;999.90;;;;;;;17.76;100.00;95724.09;5117796;28;20183;-53
2022/06/17 02:24:07;;;;;;;1999.90;999.90;;;;;;;17.70;100.00;95711.28;5099478;28;20229;-53
2022/06/17 02:26:36;;;;;;;1999.90;999.90;;;;;;;17.62;100.00;95712.69;5116424;28;20203;-54
2022/06/17 02:29:05;;;;;;;1999.90;999.90;;;;;;;17.56;100.00;95703.44;5099597;28;20184;-53
2022/06/17 02:31:33;;;;;;;1999.90;999.90;;;;;;;17.49;100.00;95703.63;5116501;28;20183;-55
2022/06/17 02:33:58;;;;;;;1999.90;999.90;;;;;;;17.42;100.00;95695.56;5116288;28;20240;-55
2022/06/17 02:36:33;;;;;;;1999.90;999.90;;;;;;;17.36;100.00;95689.78;5117434;28;20188;-58
2022/06/17 02:38:59;;;;;;;1999.90;999.90;;;;;;;17.32;100.00;95680.03;5116748;28;20305;-57
2022/06/17 02:41:27;;;;;;;1999.90;999.90;;;;;;;17.32;100.00;95680.03;5116266;28;20195;-57
2022/06/17 02:44:00;;;;;;;1999.90;999.90;;;;;;;17.21;100.00;95668.53;5098909;28;20262;-56
2022/06/17 02:46:33;;;;;;;1999.90;999.90;;;;;;;17.15;100.00;95657.28;5116078;28;20204;-58
2022/06/17 02:49:04;;;;;;;1999.90;999.90;;;;;;;17.15;100.00;95659.28;5116134;28;20222;-58
2022/06/17 02:51:33;;;;;;;1999.90;999.90;;;;;;;17.10;100.00;95657.81;5116599;28;20196;-57
2022/06/17 02:53:59;;;;;;;1999.90;999.90;;;;;;;17.00;100.00;95647.09;5099647;28;20247;-58
2022/06/17 02:56:29;;;;;;;1999.90;999.90;;;;;;;16.98;100.00;95632.97;5099568;28;20252;-57
2022/06/17 02:59:18;;;;;;;1999.90;999.90;;;;;;;16.96;100.00;95638.91;5116102;28;20212;-57
2022/06/17 03:01:45;;;;;;;1999.90;999.90;;;;;;;16.97;100.00;95628.66;5099317;28;20206;-57
2022/06/17 03:04:21;;;;;;;1999.90;999.90;;;;;;;16.98;100.00;95630.97;5098791;28;20210;-57
2022/06/17 03:06:49;;;;;;;1999.90;999.90;;;;;;;16.99;100.00;95628.97;5099476;28;20203;-57
2022/06/17 03:09:24;;;;;;;1999.90;999.90;;;;;;;16.91;100.00;95617.38;5116041;28;20192;-58
2022/06/17 03:11:55;;;;;;;1999.90;999.90;;;;;;;16.82;100.00;95616.50;5116475;28;20187;-55
2022/06/17 03:14:25;;;;;;;1999.90;999.90;;;;;;;16.85;100.00;95618.34;5117045;28;20237;-59
2022/06/17 03:16:53;;;;;;;1999.90;999.90;;;;;;;16.83;100.00;95615.28;5099100;28;20219;-59
2022/06/17 03:19:21;;;;;;;1999.90;999.90;;;;;;;16.87;100.00;95616.72;5098926;28;20180;-59
2022/06/17 03:21:46;;;;;;;1999.90;999.90;;;;;;;16.92;100.00;95623.66;5098266;28;20229;-59
2022/06/17 03:24:49;;;;;;;1999.90;999.90;;;;;;;16.94;100.00;95632.28;5115630;28;20191;-59
2022/06/17 03:27:26;;;;;;;1999.90;999.90;;;;;;;16.95;100.00;95639.34;5115489;28;20195;-59
2022/06/17 03:29:55;;;;;;;1999.90;999.90;;;;;;;16.92;100.00;95635.47;5099190;28;20191;-59
2022/06/17 03:32:28;;;;;;;1999.90;999.90;;;;;;;16.97;100.00;95653.50;5115538;28;20187;-69
2022/06/17 03:34:55;;;;;;;1999.90;999.90;;;;;;;16.94;100.00;95649.63;5098844;28;20195;-58
2022/06/17 03:37:35;;;;;;;1999.90;999.90;;;;;;;16.94;100.00;95659.88;5098458;28;20198;-58
2022/06/17 03:40:12;;;;;;;1999.90;999.90;;;;;;;16.96;100.00;95662.97;5115663;28;20207;-59
2022/06/17 03:42:54;;;;;;;1999.90;999.90;;;;;;;17.01;100.00;95667.97;5115591;28;20285;-59
2022/06/17 03:45:43;;;;;;;1999.90;999.90;;;;;;;17.09;100.00;95688.63;5098698;28;20250;-58
2022/06/17 03:48:31;;;;;;;1999.90;999.90;;;;;;;17.35;100.00;95681.94;5115072;28;20194;-66
2022/06/17 03:50:56;;;;;;;1999.90;999.90;;;;;;;17.61;100.00;95697.34;5098707;28;20278;-57
2022/06/17 03:53:29;;;;;;;1999.90;999.90;;;;;;;17.83;100.00;95706.53;5115073;28;20211;-57
2022/06/17 03:55:59;;;;;;;1999.90;999.90;;;;;;;17.99;100.00;95714.72;5115453;28;20267;-57
2022/06/17 03:58:24;;;;;;;1999.90;999.90;;;;;;;18.17;100.00;95726.00;5098119;28;20184;-57
2022/06/17 04:01:12;;;;;;;1999.90;999.90;;;;;;;18.37;100.00;95740.38;5098547;28;20192;-58
2022/06/17 04:03:41;;;;;;;1999.90;999.90;;;;;;;18.57;100.00;95757.47;5115286;28;20282;-58
2022/06/17 04:06:13;;;;;;;1999.90;999.90;;;;;;;19.04;100.00;95763.75;5114955;28;20290;-55
2022/06/17 04:08:58;;;;;;;1999.90;999.90;;;;;;;19.73;100.00;95773.53;5114735;28;20308;-58
2022/06/17 04:11:28;;;;;;;1999.90;999.90;;;;;;;20.30;100.00;95792.34;5115174;28;20192;-55
2022/06/17 04:13:55;;;;;;;1999.90;999.90;;;;;;;20.82;100.00;95803.31;5098462;28;20176;-54
2022/06/17 04:16:33;;;;;;;1999.90;999.90;;;;;;;21.30;100.00;95819.13;5114959;28;20195;-56
2022/06/17 04:19:28;;;;;;;1999.90;999.90;;;;;;;21.63;100.00;95813.72;5115532;28;20222;-55
2022/06/17 04:22:00;;;;;;;1999.90;999.90;;;;;;;21.84;97.82;95816.38;5097890;28;20211;-56
2022/06/17 04:24:29;;;;;;;1999.90;999.90;;;;;;;22.15;92.65;95839.16;5114895;28;20209;-56
2022/06/17 04:27:00;;;;;;;1999.90;999.90;;;;;;;22.55;91.22;95838.94;5097664;28;20180;-57
2022/06/17 04:29:40;;;;;;;1999.90;999.90;;;;;;;22.87;87.98;95854.13;5097967;28;20184;-56
2022/06/17 04:32:15;;;;;;;1999.90;999.90;;;;;;;23.23;84.72;95856.72;5115155;28;20275;-56
2022/06/17 04:34:40;;;;;;;1999.90;999.90;;;;;;;23.55;82.27;95867.03;5114623;28;20207;-57
2022/06/17 04:37:12;;;;;;;1999.90;999.90;;;;;;;23.68;80.53;95867.56;5114234;28;20248;-57
2022/06/17 04:39:42;;;;;;;1999.90;999.90;;;;;;;23.99;79.05;95873.50;5097552;28;20200;-57
2022/06/17 04:42:16;;;;;;;1999.90;999.90;;;;;;;24.24;77.22;95881.34;5097428;28;20190;-56
2022/06/17 04:44:41;;;;;;;1999.90;999.90;;;;;;;24.35;76.96;95887.13;5115479;28;20198;-59
2022/06/17 04:47:11;;;;;;;1999.90;999.90;;;;;;;24.72;73.93;95893.88;5097337;28;20188;-62
2022/06/17 04:49:39;;;;;;;1999.90;999.90;;;;;;;24.43;73.01;95888.28;5114488;28;20180;-65
2022/06/17 04:52:13;;;;;;;1999.90;999.90;;;;;;;24.56;73.18;95902.75;5097360;28;20177;-69
2022/06/17 04:54:39;;;;;;;1999.90;999.90;;;;;;;24.70;72.09;95908.34;5097616;28;20184;-66
2022/06/17 04:57:05;;;;;;;1999.90;999.90;;;;;;;25.21;70.32;95919.06;5097094;28;20315;-65
2022/06/17 04:59:44;;;;;;;1999.90;999.90;;;;;;;25.16;69.16;95928.13;5097503;28;20209;-63
2022/06/17 05:02:23;;;;;;;1999.90;999.90;;;;;;;25.43;67.21;95930.63;5096991;28;20248;-61
2022/06/17 05:04:54;;;;;;;1999.90;999.90;;;;;;;25.69;67.30;95928.69;5097236;28;20204;-64
2022/06/17 05:07:19;;;;;;;1999.90;999.90;;;;;;;25.92;66.12;95933.31;5114227;28;20188;-65
2022/06/17 05:09:49;;;;;;;1999.90;999.90;;;;;;;26.46;63.11;95945.66;5097020;28;20217;-65
2022/06/17 05:12:31;;;;;;;1999.90;999.90;;;;;;;26.47;61.62;95947.22;5113960;28;20254;-66
2022/06/17 05:15:15;;;;;;;1999.90;999.90;;;;;;;26.39;62.46;95949.66;5097267;28;20241;-63
2022/06/17 05:17:41;;;;;;;1999.90;999.90;;;;;;;26.89;59.90;95961.41;5114571;28;20187;-62
2022/06/17 05:20:10;;;;;;;1999.90;999.90;;;;;;;26.83;59.77;95955.75;5113948;28;20245;-62
2022/06/17 05:22:41;;;;;;;1999.90;999.90;;;;;;;27.12;58.44;95957.53;5114077;28;20179;-63
2022/06/17 05:25:15;;;;;;;1999.90;999.90;;;;;;;27.43;57.25;95963.16;5113966;28;20218;-61
2022/06/17 05:27:41;;;;;;;1999.90;999.90;;;;;;;27.63;56.45;95969.41;5114618;28;20184;-62
2022/06/17 05:30:07;;;;;;;1999.90;999.90;;;;;;;27.75;56.04;95976.63;5113602;28;20190;-62
2022/06/17 05:32:32;;;;;;;1999.90;999.90;;;;;;;28.31;54.04;95972.09;5113617;28;20271;-62
2022/06/17 05:34:58;;;;;;;1999.90;999.90;;;;;;;28.49;49.77;95974.47;5096697;28;20259;-62
2022/06/17 05:37:23;;;;;;;1999.90;999.90;;;;;;;29.08;48.43;95975.13;5114096;28;20176;-62
2022/06/17 05:39:49;;;;;;;1999.90;999.90;;;;;;;29.41;47.28;95982.78;5113477;28;20302;-58
2022/06/17 05:42:15;;;;;;;1999.90;999.90;;;;;;;29.18;46.64;95972.81;5113646;28;20179;-66
2022/06/17 05:44:41;;;;;;;1999.90;999.90;;;;;;;29.08;46.35;95974.34;5096206;28;20188;-66
2022/06/17 05:47:07;;;;;;;1999.90;999.90;;;;;;;29.40;46.18;95975.63;5113312;28;20172;-66
2022/06/17 05:49:32;;;;;;;1999.90;999.90;;;;;;;29.71;44.07;95975.38;5096161;28;20207;-66
2022/06/17 05:51:58;;;;;;;1999.90;999.90;;;;;;;29.32;45.67;95980.25;5096172;28;20316;-66
2022/06/17 05:54:24;;;;;;;1999.90;999.90;;;;;;;29.51;44.21;95978.44;5114567;28;20176;-65
2022/06/17 05:56:50;;;;;;;1999.90;999.90;;;;;;;29.19;44.88;95979.97;5096139;28;20187;-60
2022/06/17 05:59:17;;;;;;;1999.90;999.90;;;;;;;28.93;46.13;95980.19;5114261;28;20179;-58
2022/06/17 06:01:43;;;;;;;1999.90;999.90;;;;;;;29.40;45.03;95984.84;5113254;28;20199;-58
2022/06/17 06:04:09;;;;;;;1999.90;999.90;;;;;;;29.34;44.99;95980.47;5112967;28;20328;-58
2022/06/17 06:06:34;;;;;;;1999.90;999.90;;;;;;;29.83;43.59;95988.16;5113575;28;20275;-58
2022/06/17 06:08:59;;;;;;;1999.90;999.90;;;;;;;29.58;44.12;95989.19;5113685;28;20184;-58
2022/06/17 06:11:25;;;;;;;1999.90;999.90;;;;;;;30.07;43.13;95994.75;5112768;28;20206;-58
2022/06/17 06:13:50;;;;;;;1999.90;999.90;;;;;;;30.11;42.53;96008.56;5113292;28;20188;-58
2022/06/17 06:16:16;;;;;;;1999.90;999.90;;;;;;;30.63;43.32;96006.63;5112918;28;20183;-59
2022/06/17 06:18:45;;;;;;;1999.90;999.90;;;;;;;30.39;41.12;96014.91;5112909;28;20187;-59
2022/06/17 06:21:11;;;;;;;1999.90;999.90;;;;;;;30.82;41.26;96010.38;5096117;28;20187;-58
2022/06/17 06:23:38;;;;;;;1999.90;999.90;;;;;;;31.59;40.42;96009.84;5112790;28;20180;-59
2022/06/17 06:26:07;;;;;;;1999.90;999.90;;;;;;;31.73;37.94;96017.19;5095493;28;20261;-58
2022/06/17 06:28:33;;;;;;;1999.90;999.90;;;;;;;31.33;40.10;96023.69;5095642;28;20176;-57
2022/06/17 06:31:05;;;;;;;1999.90;999.90;;;;;;;31.37;40.06;96021.34;5113623;28;20217;-58
2022/06/17 06:33:31;;;;;;;1999.90;999.90;;;;;;;31.66;40.08;96014.94;5096029;28;20192;-58
2022/06/17 06:35:56;;;;;;;1999.90;999.90;;;;;;;31.86;39.71;96027.88;5095783;28;20229;-56
2022/06/17 06:38:22;;;;;;;1999.90;999.90;;;;;;;31.60;38.73;96019.84;5095665;28;20211;-60
2022/06/17 06:40:47;;;;;;;1999.90;999.90;;;;;;;31.72;39.42;96024.09;5112152;28;20190;-61
2022/06/17 06:43:22;;;;;;;1999.90;999.90;;;;;;;31.67;38.96;96018.50;5113153;28;20183;-62
2022/06/17 06:45:50;;;;;;;1999.90;999.90;;;;;;;30.93;39.33;96015.97;5095615;28;20221;-61
2022/06/17 06:48:20;;;;;;;1999.90;999.90;;;;;;;30.84;39.03;96021.91;5095964;28;20186;-62
2022/06/17 06:50:45;;;;;;;1999.90;999.90;;;;;;;31.16;39.63;96028.63;5112353;28;20176;-62
2022/06/17 06:53:11;;;;;;;1999.90;999.90;;;;;;;31.39;39.39;96024.38;5095192;28;20271;-64
2022/06/17 06:55:38;;;;;;;1999.90;999.90;;;;;;;31.64;38.62;96033.72;5095485;28;20187;-64
2022/06/17 06:58:18;;;;;;;1999.90;999.90;;;;;;;32.13;38.01;96030.44;5112580;28;20191;-64
2022/06/17 07:00:47;;;;;;;1999.90;999.90;;;;;;;32.82;37.02;96036.31;5114382;28;20206;-65
2022/06/17 07:03:13;;;;;;;1999.90;999.90;;;;;;;34.32;34.96;96029.84;5116314;28;20182;-65
2022/06/17 07:05:42;;;;;;;1999.90;999.90;;;;;;;34.10;34.78;96035.94;5098786;28;20206;-64
2022/06/17 07:08:10;;;;;;;1999.90;999.90;;;;;;;32.95;35.32;96044.91;5099007;28;20176;-65
2022/06/17 07:10:37;;;;;;;1999.90;999.90;;;;;;;33.56;35.33;96039.16;5116112;28;20187;-64
2022/06/17 07:13:03;;;;;;;1999.90;999.90;;;;;;;34.00;35.02;96038.44;5116810;28;20207;-64
2022/06/17 07:15:30;;;;;;;1999.90;999.90;;;;;;;33.74;35.37;96041.94;5098787;28;20223;-64
2022/06/17 07:18:03;;;;;;;1999.90;999.90;;;;;;;33.89;34.42;96037.88;5116879;28;20183;-64
2022/06/17 07:20:37;;;;;;;1999.90;999.90;;;;;;;34.29;33.44;96042.28;5115867;28;20210;-64
2022/06/17 07:23:07;;;;;;;1999.90;999.90;;;;;;;34.78;33.38;96037.72;5099107;28;20183;-64
2022/06/17 07:25:33;;;;;;;1999.90;999.90;;;;;;;35.21;32.64;96038.09;5115951;28;20199;-64
2022/06/17 07:28:00;;;;;;;1999.90;999.90;;;;;;;35.10;32.79;96041.19;5115362;28;20202;-61
2022/06/17 07:30:26;;;;;;;1999.90;999.90;;;;;;;36.49;31.07;96042.94;5098452;28;20291;-62
2022/06/17 07:32:52;;;;;;;1999.90;999.90;;;;;;;36.93;29.99;96038.84;5098161;28;20255;-64
2022/06/17 07:35:20;;;;;;;1999.90;999.90;;;;;;;36.44;31.12;96035.28;5116312;28;20176;-63
2022/06/17 07:40:31;;;;;;;1999.90;999.90;;;;;;;37.01;29.65;96036.00;5116960;28;20194;-64
2022/06/17 07:42:57;;;;;;;1999.90;999.90;;;;;;;37.59;28.70;96039.66;5115280;28;20276;-64
2022/06/17 07:45:24;;;;;;;1999.90;999.90;;;;;;;37.15;29.77;96041.03;5115229;28;20210;-65
2022/06/17 07:47:54;;;;;;;1999.90;999.90;;;;;;;37.10;29.76;96044.78;5115289;28;20190;-58
2022/06/17 07:50:25;;;;;;;1999.90;999.90;;;;;;;37.64;29.32;96044.44;5098590;28;20180;-66
2022/06/17 07:52:51;;;;;;;1999.90;999.90;;;;;;;38.08;28.01;96048.69;5098549;28;20244;-65
2022/06/17 07:55:16;;;;;;;1999.90;999.90;;;;;;;37.43;28.80;96045.88;5115296;28;20184;-65
2022/06/17 07:57:43;;;;;;;1999.90;999.90;;;;;;;37.40;29.66;96044.16;5116322;28;20248;-66
2022/06/17 08:00:17;;;;;;;1999.90;999.90;;;;;;;37.33;29.02;96047.75;5115532;28;20210;-66
2022/06/17 08:02:42;;;;;;;1999.90;999.90;;;;;;;37.26;28.99;96051.34;5097948;28;20191;-66
2022/06/17 08:05:08;;;;;;;1999.90;999.90;;;;;;;37.02;28.76;96044.00;5114751;28;20203;-62
2022/06/17 08:07:33;;;;;;;1999.90;999.90;;;;;;;36.85;29.87;96046.56;5114988;28;20251;-65
2022/06/17 08:09:58;;;;;;;1999.90;999.90;;;;;;;37.75;28.59;96052.63;5115389;28;20180;-59
2022/06/17 08:12:24;;;;;;;1999.90;999.90;;;;;;;36.82;30.04;96047.72;5114800;28;20176;-59
2022/06/17 08:14:54;;;;;;;1999.90;999.90;;;;;;;37.11;29.97;96046.31;5114701;28;20183;-59
2022/06/17 08:17:19;;;;;;;1999.90;999.90;;;;;;;37.30;28.38;96057.44;5114730;28;20180;-60
2022/06/17 08:19:45;;;;;;;1999.90;999.90;;;;;;;37.46;28.14;96048.34;5097783;28;20200;-59
2022/06/17 08:22:11;;;;;;;1999.90;999.90;;;;;;;37.15;28.55;96052.41;5114668;28;20249;-59
2022/06/17 08:24:36;;;;;;;1999.90;999.90;;;;;;;37.75;28.87;96049.78;5114731;28;20232;-59
2022/06/17 08:27:03;;;;;;;1999.90;999.90;;;;;;;37.47;28.85;96052.72;5114551;28;20176;-59
2022/06/17 08:29:29;;;;;;;1999.90;999.90;;;;;;;38.06;27.51;96054.22;5097562;28;20176;-59
2022/06/17 08:31:55;;;;;;;1999.90;999.90;;;;;;;36.92;27.81;96050.78;5114451;28;20180;-59
2022/06/17 08:34:21;;;;;;;1999.90;999.90;;;;;;;36.83;27.83;96052.06;5097308;28;20180;-59
2022/06/17 08:36:47;;;;;;;1999.90;999.90;;;;;;;36.87;28.92;96063.88;5114322;28;20183;-59
2022/06/17 08:39:14;;;;;;;1999.90;999.90;;;;;;;36.83;28.17;96060.63;5114069;28;20219;-58
2022/06/17 08:41:45;;;;;;;1999.90;999.90;;;;;;;36.67;27.45;96059.75;5097359;28;20245;-65
2022/06/17 08:44:28;;;;;;;1999.90;999.90;;;;;;;37.47;27.41;96060.53;5114018;28;20279;-62
2022/06/17 08:47:12;;;;;;;1999.90;999.90;;;;;;;38.06;28.16;96059.94;5113944;28;20219;-61
2022/06/17 08:49:40;;;;;;;1999.90;999.90;;;;;;;37.43;28.20;96060.91;5114880;28;20191;-61
2022/06/17 08:52:18;;;;;;;1999.90;999.90;;;;;;;36.79;25.64;96068.00;5113973;28;20196;-61
2022/06/17 08:54:58;;;;;;;1999.90;999.90;;;;;;;36.97;27.31;96076.28;5114398;28;20190;-61
2022/06/17 08:57:24;;;;;;;1999.90;999.90;;;;;;;37.42;27.36;96065.09;5114046;28;20175;-61
2022/06/17 09:00:08;;;;;;;1999.90;999.90;;;;;;;37.52;26.30;96076.72;5114602;28;20278;-64
2022/06/17 09:02:52;;;;;;;1999.90;999.90;;;;;;;37.56;26.36;96075.00;5114300;28;20278;-67
2022/06/17 09:05:59;;;;;;;1999.90;999.90;;;;;;;37.81;26.35;96081.00;5114255;28;20302;-67
2022/06/17 09:09:12;;;;;;;1999.90;999.90;;;;;;;37.17;27.38;96078.28;5097189;28;20183;-66
2022/06/17 09:12:07;;;;;;;1999.90;999.90;;;;;;;37.15;26.44;96085.84;5097333;28;20180;-65
2022/06/17 09:15:02;;;;;;;1999.90;999.90;;;;;;;37.17;26.57;96083.25;5096833;28;20179;-65
2022/06/17 09:17:54;;;;;;;1999.90;999.90;;;;;;;37.35;27.39;96080.06;5096870;28;20184;-67
2022/06/17 09:20:26;;;;;;;1999.90;999.90;;;;;;;37.83;26.30;96081.94;5096532;28;20270;-62
2022/06/17 09:23:00;;;;;;;1999.90;999.90;;;;;;;37.84;25.69;96086.34;5113471;28;20190;-59
2022/06/17 09:25:38;;;;;;;1999.90;999.90;;;;;;;35.81;26.32;96081.44;5113573;28;20213;-59
2022/06/17 09:28:09;;;;;;;1999.90;999.90;;;;;;;35.55;26.99;96079.44;5096607;28;20202;-59
2022/06/17 09:30:44;;;;;;;1999.90;999.90;;;;;;;35.01;28.23;96081.41;5113922;28;20183;-59
2022/06/17 09:33:16;;;;;;;1999.90;999.90;;;;;;;34.18;28.70;96076.53;5113791;28;20178;-59
2022/06/17 09:36:08;;;;;;;1999.90;999.90;;;;;;;33.71;28.93;96079.88;5113221;28;20172;-59
2022/06/17 09:39:06;;;;;;;1999.90;999.90;;;;;;;33.63;29.62;96084.66;5097263;28;20214;-62
2022/06/17 09:41:40;;;;;;;1999.90;999.90;;;;;;;35.80;27.59;96079.91;5113841;28;20276;-62
2022/06/17 09:44:23;;;;;;;1999.90;999.90;;;;;;;34.80;28.33;96089.03;5113307;28;20274;-63
2022/06/17 09:47:05;;;;;;;1999.90;999.90;;;;;;;34.44;28.75;96076.63;5113351;28;20204;-63
2022/06/17 09:49:41;;;;;;;1999.90;999.90;;;;;;;35.90;27.81;96086.66;5114033;28;20260;-63
2022/06/17 09:52:14;;;;;;;1999.90;999.90;;;;;;;35.56;28.05;96086.66;5114204;28;20182;-63
2022/06/17 09:54:49;;;;;;;1999.90;999.90;;;;;;;34.40;29.44;96087.50;5096701;28;20208;-63
2022/06/17 09:57:25;;;;;;;1999.90;999.90;;;;;;;33.87;30.91;96080.94;5096366;28;20243;-62
2022/06/17 10:00:04;;;;;;;1999.90;999.90;;;;;;;33.78;30.10;96084.94;5113116;28;20178;-63
2022/06/17 10:02:42;;;;;;;1999.90;999.90;;;;;;;35.30;29.94;96083.13;5113053;28;20220;-62
2022/06/17 10:05:36;;;;;;;1999.90;999.90;;;;;;;35.69;29.55;96088.69;5112878;28;20215;-63
2022/06/17 10:08:22;;;;;;;1999.90;999.90;;;;;;;36.01;28.99;96089.22;5096479;28;20198;-63
2022/06/17 10:11:12;;;;;;;1999.90;999.90;;;;;;;35.54;29.75;96089.28;5113341;28;20330;-63
2022/06/17 10:13:59;;;;;;;1999.90;999.90;;;;;;;34.81;29.75;96099.09;5112952;28;20237;-63
2022/06/17 10:20:06;;;;;;;1999.90;999.90;;;;;;;35.74;28.39;96090.63;5113912;28;20251;-59
2022/06/17 10:23:02;;;;;;;1999.90;999.90;;;;;;;36.61;27.95;96084.03;5113671;28;20189;-58
2022/06/17 10:25:51;;;;;;;1999.90;999.90;;;;;;;36.13;27.99;96079.06;5113591;28;20211;-59
2022/06/17 10:28:34;;;;;;;1999.90;999.90;;;;;;;35.93;28.55;96076.97;5112846;28;20176;-59
2022/06/17 10:31:37;;;;;;;1999.90;999.90;;;;;;;35.54;28.27;96080.00;5113232;28;20198;-59
2022/06/17 10:34:10;;;;;;;1999.90;999.90;;;;;;;34.91;29.21;96086.78;5110802;28;20195;-61
2022/06/17 10:36:36;;;;;;;1999.90;999.90;;;;;;;35.65;28.79;96074.03;5116863;28;20180;-64
2022/06/17 10:39:02;;;;;;;1999.90;999.90;;;;;;;36.38;27.44;96083.09;5099189;28;20291;-65
2022/06/17 10:41:30;;;;;;;1999.90;999.90;;;;;;;35.89;28.01;96083.03;5116108;28;20202;-64
2022/06/17 10:43:56;;;;;;;1999.90;999.90;;;;;;;36.71;27.88;96073.66;5098880;28;20184;-64
2022/06/17 10:46:32;;;;;;;1999.90;999.90;;;;;;;36.46;27.32;96078.97;5099083;28;20231;-66
2022/06/17 10:49:10;;;;;;;1999.90;999.90;;;;;;;35.85;27.51;96059.84;5099692;28;20183;-65
2022/06/17 10:51:38;;;;;;;1999.90;999.90;;;;;;;35.89;28.18;96062.34;5099141;28;20195;-61
2022/06/17 10:54:28;;;;;;;1999.90;999.90;;;;;;;35.14;28.82;96064.34;5116054;28;20259;-64
2022/06/17 10:57:05;;;;;;;1999.90;999.90;;;;;;;35.17;28.27;96066.84;5106558;28;20188;-64
2022/06/17 10:59:39;;;;;;;1999.90;999.90;;;;;;;35.67;27.52;96066.47;5116973;28;20190;-64
2022/06/17 11:02:21;;;;;;;1999.90;999.90;;;;;;;36.58;26.05;96062.34;5116508;28;20206;-66
2022/06/17 11:04:57;;;;;;;1999.90;999.90;;;;;;;36.31;25.81;96061.03;5099116;28;20180;-67
2022/06/17 11:07:31;;;;;;;1999.90;999.90;;;;;;;36.14;26.85;96060.66;5116943;28;20207;-66
2022/06/17 11:10:12;;;;;;;1999.90;999.90;;;;;;;36.07;26.46;96065.00;5099106;28;20182;-65
2022/06/17 11:12:42;;;;;;;1999.90;999.90;;;;;;;36.63;25.83;96059.34;5115907;28;20237;-65
2022/06/17 11:15:22;;;;;;;1999.90;999.90;;;;;;;36.33;25.72;96064.06;5115931;28;20206;-65
2022/06/17 11:17:50;;;;;;;1999.90;999.90;;;;;;;36.95;25.81;96061.81;5116732;28;20184;-62
2022/06/17 11:20:19;;;;;;;1999.90;999.90;;;;;;;36.19;25.19;96066.22;5115883;28;20176;-62
2022/06/17 11:22:54;;;;;;;1999.90;999.90;;;;;;;35.87;24.09;96065.00;5116007;28;20218;-62